Hunter Army Air Field
KSVN : rendu visible

Aérodrome :











RETROUVEZ-NOUS SUR...

 
LOGIN :

S'inscrire | Disclaimer

   EN    FR    IT 

 









Légende :    VFR   VFR Marginal   IFR   IFR Intensif   IFR Très Intensif
Visi : 
Plafond : 
>= 8 km
>= 3000ft
5 à 8 km
1000 à 3000 ft
1500m à 5 km
500 à 1000 ft
800 à 1500m
200 à 500 ft
< 800m
< 200 ft
Symboles :   Orages  Brouillard  Fortes neiges  Fortes précipitations  Vent > 20 kt






- Altitude de l'aérodrome : 41 ft


KSVN - Hunter Army Air Field

DERNIER METAR :
  • 241056Z AUTO 00000KT 10SM BKN055 OVC100 12/09 A3007 RMK AO2 SLP186 T01230093 $

METARs EXPIRÉS :
  • 240956Z AUTO 00000KT 10SM OVC100 12/09 A3007 RMK AO2 SLP186 T01160092 $
  • 240856Z AUTO 00000KT 10SM OVC110 12/09 A3007 RMK AO2 SLP186 T01170091 57021 $

TAF TAF KSVN
Valide du 24 à 05h jusqu'au 25 à 11h UTC


240500Z 2405/2511 VRB06KT 9999 BKN100 QNH2998INS
BECMG 2505/2506 VRB06KT 8000 -RA SCT017 510033 QNH2997INS
BECMG 2507/2508 VRB06KT 8000 -RA SCT010 510203 QNH2990INS TX15/2418Z TN10/2407Z



MET'MAP, la Météo Aéronautique d'un coup d'oeil ! - Copyright ORBIFLY Décembre 2007 - Disclaimer

ORBIFLY MET'MAP TEAM :

Programmation & Développement : Alexandra Zaïnal
Sur une idée originale de : Baudouin d'Aumeries
Assistance à la programmation : Marc-Olivier Méhu
Soutien technique & logistique : Manuel Goepfert

Contact : metmap@orbifly.com




SOURCES & CREDITS :

   NOAA       Earth
Advisory